Time;durP1;ratioP1;P1;durP2;ratioP2;P2;SDS_P1;SDS_P2;PMS_P1;PMS_P2;Temp;Humidity;BMP_temperature;BMP_pressure;BME280_temperature;BME280_humidity;BME280_pressure;Samples;Min_cycle;Max_cycle;Signal;HPM_P1;HPM_P2
2022/01/09 00:00:16;;;;;;;;;6.33;6.33;;;;;-0.63;77.85;101570.19;6185692;23;8828;-79
2022/01/09 00:03:12;;;;;;;;;2.33;2.33;;;;;-0.66;78.37;101567.13;6166516;23;8797;-79
2022/01/09 00:06:09;;;;;;;;;5.33;5.33;;;;;-0.59;78.94;101573.28;6185706;23;8805;-78
2022/01/09 00:09:06;;;;;;;;;6.00;6.00;;;;;-0.63;78.88;101569.38;6185592;23;8801;-79
2022/01/09 00:12:02;;;;;;;;;4.33;4.33;;;;;-0.48;78.78;101568.91;6185802;23;8801;-80
2022/01/09 00:14:58;;;;;;;;;12.33;9.67;;;;;-0.28;78.50;101564.78;6185924;23;8801;-80
2022/01/09 00:17:53;;;;;;;;;10.67;9.33;;;;;-0.30;78.65;101557.94;6165900;23;9530;-80
2022/01/09 00:20:52;;;;;;;;;7.00;7.00;;;;;-0.35;78.64;101546.94;6185803;23;8782;-79
2022/01/09 00:23:47;;;;;;;;;6.33;6.33;;;;;-0.44;79.43;101534.78;6182836;23;8810;-79
2022/01/09 00:26:43;;;;;;;;;4.00;4.00;;;;;-0.45;79.96;101533.13;6186827;23;8806;-80
2022/01/09 00:29:38;;;;;;;;;6.00;6.00;;;;;-0.51;80.46;101529.44;6202917;23;8821;-78
2022/01/09 00:32:34;;;;;;;;;4.00;4.00;;;;;-0.58;80.53;101513.25;6186574;23;8814;-79
2022/01/09 00:35:30;;;;;;;;;6.67;6.67;;;;;-0.51;80.84;101510.44;6186734;23;8849;-78
2022/01/09 00:38:25;;;;;;;;;9.00;7.67;;;;;-0.59;81.29;101503.47;6204294;23;8794;-79
2022/01/09 00:41:21;;;;;;;;;4.00;4.00;;;;;-0.48;81.26;101490.09;6184560;23;8904;-78
2022/01/09 00:44:16;;;;;;;;;5.33;5.33;;;;;-0.57;81.28;101490.47;6186607;23;8872;-78
2022/01/09 00:47:12;;;;;;;;;3.00;3.00;;;;;-0.47;81.43;101497.19;6186241;23;8836;-77
2022/01/09 00:50:10;;;;;;;;;6.33;6.33;;;;;-0.35;81.19;101481.69;6186255;23;9507;-78
2022/01/09 00:53:07;;;;;;;;;9.00;9.00;;;;;-0.39;81.24;101480.50;6186799;23;8798;-78
2022/01/09 00:56:03;;;;;;;;;13.00;13.00;;;;;-0.27;81.25;101481.31;6185751;23;8822;-78
2022/01/09 00:58:58;;;;;;;;;6.67;6.67;;;;;-0.26;81.18;101479.44;6186247;23;8802;-79
2022/01/09 01:01:54;;;;;;;;;6.33;6.33;;;;;-0.10;81.27;101474.06;6186112;23;8797;-79
2022/01/09 01:04:51;;;;;;;;;10.00;10.00;;;;;-0.01;81.88;101477.22;6186077;23;8819;-80
2022/01/09 01:07:47;;;;;;;;;10.67;10.67;;;;;0.03;81.51;101472.97;6184001;23;8790;-82
2022/01/09 01:10:42;;;;;;;;;8.67;7.67;;;;;-0.25;82.72;101468.31;6185180;23;9618;-80
2022/01/09 01:13:38;;;;;;;;;11.33;10.67;;;;;-0.30;83.83;101466.31;6185944;23;9593;-78
2022/01/09 01:16:34;;;;;;;;;7.67;7.67;;;;;-0.14;83.79;101462.03;6186064;23;8794;-79
2022/01/09 01:19:29;;;;;;;;;12.33;12.00;;;;;-0.06;83.28;101464.38;6186905;23;8805;-79
2022/01/09 01:22:26;;;;;;;;;9.00;9.00;;;;;0.01;83.43;101452.53;6185613;23;8908;-79
2022/01/09 01:25:21;;;;;;;;;10.00;10.00;;;;;-0.06;84.21;101455.38;6185095;23;8789;-79
2022/01/09 01:28:18;;;;;;;;;13.33;13.33;;;;;-0.09;84.53;101443.06;6184831;23;8805;-79
2022/01/09 01:31:13;;;;;;;;;13.00;12.00;;;;;-0.07;84.75;101430.09;6164904;23;8916;-78
2022/01/09 01:34:12;;;;;;;;;18.00;15.67;;;;;-0.03;85.11;101420.38;6183905;23;8809;-79
2022/01/09 01:37:07;;;;;;;;;10.67;10.00;;;;;-0.02;84.95;101415.75;6184775;23;9554;-79
2022/01/09 01:40:03;;;;;;;;;12.00;10.00;;;;;0.06;84.56;101409.09;6185176;23;8785;-79
2022/01/09 01:42:59;;;;;;;;;13.00;13.00;;;;;0.07;84.92;101403.41;6184796;23;8797;-80
2022/01/09 01:45:55;;;;;;;;;8.33;6.67;;;;;0.03;84.86;101394.09;6184649;23;9582;-79
2022/01/09 01:48:50;;;;;;;;;13.00;13.00;;;;;0.12;85.19;101399.97;6184586;23;9530;-80
2022/01/09 01:51:46;;;;;;;;;16.00;13.00;;;;;-0.01;85.82;101391.03;6183816;23;8822;-80
2022/01/09 01:54:43;;;;;;;;;10.00;7.00;;;;;0.01;86.02;101393.53;6184729;23;8785;-80
2022/01/09 01:57:41;;;;;;;;;12.33;12.33;;;;;-0.01;86.36;101390.19;6184674;23;8797;-79
2022/01/09 02:00:41;;;;;;;;;11.00;11.00;;;;;-0.06;86.62;101387.41;6184681;23;11589;-79
2022/01/09 02:03:38;;;;;;;;;20.00;14.67;;;;;0.06;87.45;101381.91;6184368;23;8809;-79
2022/01/09 02:06:34;;;;;;;;;16.00;15.33;;;;;0.15;86.48;101383.16;6184659;23;8789;-80
2022/01/09 02:09:30;;;;;;;;;17.00;14.67;;;;;0.14;87.37;101379.59;6184724;23;8830;-81
2022/01/09 02:12:26;;;;;;;;;17.33;17.33;;;;;0.28;86.74;101371.97;6184298;23;8793;-79
2022/01/09 02:15:38;;;;;;;;;16.00;16.00;;;;;0.40;86.10;101377.34;6164755;23;8882;-80
2022/01/09 02:18:34;;;;;;;;;14.67;13.33;;;;;0.38;86.15;101371.31;6184477;23;8895;-78
2022/01/09 02:21:29;;;;;;;;;21.33;20.33;;;;;0.24;87.57;101363.47;6185278;23;11495;-78
2022/01/09 02:24:25;;;;;;;;;11.33;9.67;;;;;0.11;87.68;101365.69;6184377;23;8832;-79
2022/01/09 02:27:21;;;;;;;;;12.00;11.33;;;;;0.17;88.10;101346.47;6184095;23;11507;-79
2022/01/09 02:30:16;;;;;;;;;13.00;13.00;;;;;0.13;87.91;101342.59;6164915;23;8793;-79
2022/01/09 02:33:17;;;;;;;;;13.00;13.00;;;;;0.25;87.80;101345.25;6166016;23;8802;-79
2022/01/09 02:36:12;;;;;;;;;20.33;18.67;;;;;0.24;87.84;101343.59;6165236;23;8797;-79
2022/01/09 02:39:08;;;;;;;;;14.00;14.00;;;;;0.31;88.10;101346.16;6184691;23;8794;-79
2022/01/09 02:42:04;;;;;;;;;15.33;15.33;;;;;0.26;87.92;101341.47;6165683;23;9430;-79
2022/01/09 02:45:01;;;;;;;;;23.00;20.00;;;;;0.40;87.71;101342.78;6184417;23;9495;-80
2022/01/09 02:47:58;;;;;;;;;16.33;14.33;;;;;0.17;88.48;101335.59;6184319;23;8835;-79
2022/01/09 02:51:03;;;;;;;;;16.33;15.33;;;;;0.31;87.87;101340.69;6184197;23;8820;-80
2022/01/09 02:55:04;;;;;;;;;11.00;11.00;;;;;0.35;87.77;101336.44;6183046;23;8828;-80
2022/01/09 02:57:16;;;;;;;;;10.33;10.00;;;;;0.40;87.35;101328.34;6183767;23;11558;-80
2022/01/09 03:00:34;;;;;;;;;12.00;12.00;;;;;0.46;87.76;101317.31;6164565;23;12309;-79
2022/01/09 03:03:30;;;;;;;;;12.33;11.67;;;;;0.58;86.86;101308.22;6165180;23;8887;-78
2022/01/09 03:06:25;;;;;;;;;13.00;13.00;;;;;0.64;86.73;101302.59;6164262;23;9491;-78
2022/01/09 03:09:21;;;;;;;;;17.67;15.67;;;;;0.54;86.90;101302.47;6184016;23;12188;-79
2022/01/09 03:12:17;;;;;;;;;9.67;9.67;;;;;0.42;86.74;101288.09;6164140;23;12266;-79
2022/01/09 03:15:14;;;;;;;;;13.00;13.00;;;;;0.35;88.00;101282.84;6165517;23;11548;-79
2022/01/09 03:18:10;;;;;;;;;10.00;10.00;;;;;0.49;87.73;101277.88;6183682;23;8801;-79
2022/01/09 03:21:06;;;;;;;;;7.67;7.67;;;;;0.45;88.34;101276.72;6164305;23;11479;-79
2022/01/09 03:24:01;;;;;;;;;9.67;9.67;;;;;0.43;88.54;101287.03;6184332;23;11475;-78
2022/01/09 03:26:57;;;;;;;;;11.33;11.33;;;;;0.56;87.98;101294.84;6164540;23;11484;-80
2022/01/09 03:29:52;;;;;;;;;7.33;7.33;;;;;0.49;88.20;101284.13;6165385;23;12343;-78
2022/01/09 03:32:50;;;;;;;;;13.33;13.33;;;;;0.47;88.53;101274.59;6183837;23;11477;-80
2022/01/09 03:35:46;;;;;;;;;12.00;12.00;;;;;0.60;88.40;101276.94;6164594;23;8793;-80
2022/01/09 03:38:42;;;;;;;;;18.67;18.33;;;;;0.60;88.04;101276.94;6163861;23;8794;-78
2022/01/09 03:41:37;;;;;;;;;23.67;23.00;;;;;0.72;88.04;101280.38;6184473;23;8801;-79
2022/01/09 03:44:33;;;;;;;;;17.00;17.00;;;;;0.70;88.01;101287.16;6184143;23;8805;-79
2022/01/09 03:47:29;;;;;;;;;11.67;11.67;;;;;0.58;88.76;101289.97;6183272;23;8840;-77
2022/01/09 03:50:25;;;;;;;;;12.33;12.33;;;;;0.53;89.17;101279.00;6164091;23;11673;-78
2022/01/09 03:53:21;;;;;;;;;13.67;13.67;;;;;0.73;89.09;101279.31;6163832;23;11526;-79
2022/01/09 03:56:16;;;;;;;;;13.00;13.00;;;;;0.69;89.00;101278.19;6183745;23;11499;-80
2022/01/09 03:59:12;;;;;;;;;8.00;8.00;;;;;0.53;89.31;101277.09;6183751;23;11463;-78
2022/01/09 04:02:07;;;;;;;;;11.00;10.67;;;;;0.57;90.13;101274.72;6183492;23;11547;-78
2022/01/09 04:05:03;;;;;;;;;15.67;15.00;;;;;0.54;90.25;101267.06;6182557;23;11484;-79
2022/01/09 04:07:59;;;;;;;;;11.67;10.33;;;;;0.46;91.14;101260.16;6164171;23;8806;-78
2022/01/09 04:10:55;;;;;;;;;13.00;13.00;;;;;0.58;90.89;101257.31;6183774;23;8781;-80
2022/01/09 04:13:51;;;;;;;;;10.33;10.33;;;;;0.69;90.29;101250.09;6183576;23;11579;-78
2022/01/09 04:16:46;;;;;;;;;8.00;8.00;;;;;0.63;90.73;101240.25;6163969;23;11495;-80
2022/01/09 04:19:42;;;;;;;;;13.67;13.67;;;;;0.69;89.75;101245.50;6184078;23;12205;-79
2022/01/09 04:22:38;;;;;;;;;14.00;12.33;;;;;0.73;90.52;101232.19;6183196;23;12239;-79
2022/01/09 04:25:34;;;;;;;;;17.67;17.67;;;;;0.58;91.07;101221.94;6183567;23;11552;-80
2022/01/09 04:28:29;;;;;;;;;25.00;22.00;;;;;0.69;91.35;101226.47;6183487;23;11604;-81
2022/01/09 04:31:25;;;;;;;;;17.67;15.33;;;;;0.73;90.12;101232.19;6183290;23;11601;-81
2022/01/09 04:34:20;;;;;;;;;19.00;17.00;;;;;0.77;90.34;101214.31;6183608;23;8825;-80
2022/01/09 04:37:17;;;;;;;;;23.33;21.33;;;;;0.76;90.30;101218.91;6183261;23;9500;-79
2022/01/09 04:40:14;;;;;;;;;22.67;22.67;;;;;0.85;90.21;101211.13;6184319;23;8786;-81
2022/01/09 04:43:12;;;;;;;;;13.67;11.67;;;;;0.76;90.26;101209.91;6185482;23;8871;-80
2022/01/09 04:46:09;;;;;;;;;23.33;23.33;;;;;0.78;90.72;101222.22;6185277;23;8785;-80
2022/01/09 04:49:06;;;;;;;;;24.33;18.33;;;;;0.92;89.54;101213.63;6185367;23;8808;-80
2022/01/09 04:52:05;;;;;;;;;23.00;23.00;;;;;0.92;89.61;101222.66;6166612;23;11494;-81
2022/01/09 04:55:01;;;;;;;;;13.00;11.00;;;;;0.81;90.04;101212.69;6165493;23;11612;-81
2022/01/09 04:57:56;;;;;;;;;23.00;23.00;;;;;0.83;89.58;101221.44;6185152;23;8785;-82
2022/01/09 05:00:52;;;;;;;;;26.00;26.00;;;;;0.92;89.59;101219.09;6184499;23;8826;-81
2022/01/09 05:03:48;;;;;;;;;19.67;19.67;;;;;0.93;89.79;101212.59;6184602;23;8810;-80
2022/01/09 05:06:43;;;;;;;;;29.33;22.67;;;;;0.89;89.09;101200.53;6185861;23;11575;-81
2022/01/09 05:09:39;;;;;;;;;19.33;19.00;;;;;0.94;89.71;101201.44;6185159;23;8816;-81
2022/01/09 05:12:35;;;;;;;;;17.67;17.67;;;;;0.89;89.94;101209.53;6184816;23;12203;-78
2022/01/09 05:15:30;;;;;;;;;25.67;25.67;;;;;0.97;88.95;101216.44;6184823;23;11542;-80
2022/01/09 05:18:26;;;;;;;;;23.33;23.33;;;;;0.98;88.93;101213.44;6164844;23;8797;-78
2022/01/09 05:21:21;;;;;;;;;26.33;26.33;;;;;0.99;88.73;101208.81;6185468;23;11500;-79
2022/01/09 05:24:17;;;;;;;;;21.33;21.33;;;;;0.96;89.00;101198.44;6184744;23;8793;-80
2022/01/09 05:27:12;;;;;;;;;16.67;16.00;;;;;1.05;87.95;101200.47;6184246;23;11478;-79
2022/01/09 05:30:08;;;;;;;;;19.00;16.33;;;;;0.90;88.90;101192.13;6184628;23;11499;-79
2022/01/09 05:33:04;;;;;;;;;16.67;16.33;;;;;0.69;88.65;101182.03;6184457;23;11654;-78
2022/01/09 05:36:00;;;;;;;;;13.00;13.00;;;;;0.92;89.13;101183.69;6184934;23;11553;-79
2022/01/09 05:38:55;;;;;;;;;20.33;19.33;;;;;0.88;88.78;101185.28;6164946;23;11502;-80
2022/01/09 05:41:51;;;;;;;;;14.00;14.00;;;;;0.88;88.62;101180.66;6166177;23;11560;-78
2022/01/09 05:44:47;;;;;;;;;23.00;22.00;;;;;0.81;88.33;101172.69;6184703;23;12378;-79
2022/01/09 05:47:44;;;;;;;;;23.33;20.33;;;;;0.78;89.27;101177.81;6184415;23;11568;-79
2022/01/09 05:50:39;;;;;;;;;16.00;16.00;;;;;0.89;88.88;101195.09;6164671;23;11583;-77
2022/01/09 05:53:35;;;;;;;;;20.00;20.00;;;;;0.94;87.97;101184.28;6165318;23;11646;-78
2022/01/09 05:56:30;;;;;;;;;21.33;18.33;;;;;0.87;88.00;101173.56;6184112;23;11607;-79
2022/01/09 05:59:26;;;;;;;;;25.67;25.67;;;;;0.59;88.92;101162.88;6164218;23;11515;-79
2022/01/09 06:02:21;;;;;;;;;25.00;23.00;;;;;0.53;89.65;101157.34;6164290;23;9581;-78
2022/01/09 06:05:17;;;;;;;;;26.00;25.00;;;;;0.68;89.17;101167.59;6184505;23;11512;-79
2022/01/09 06:08:14;;;;;;;;;72.33;59.00;;;;;0.49;89.72;101150.78;6164763;23;8782;-77
2022/01/09 06:11:09;;;;;;;;;23.33;22.00;;;;;0.51;90.34;101147.81;6184605;23;8859;-80
2022/01/09 06:14:05;;;;;;;;;21.33;21.33;;;;;0.72;89.75;101146.16;6164526;23;8805;-79
2022/01/09 06:17:00;;;;;;;;;87.00;67.33;;;;;0.77;89.94;101141.59;6184296;23;8864;-79
2022/01/09 06:19:56;;;;;;;;;18.67;18.67;;;;;0.70;90.03;101151.03;6184409;23;9471;-77
2022/01/09 06:22:51;;;;;;;;;20.00;16.67;;;;;0.79;90.33;101149.50;6183890;23;8904;-79
2022/01/09 06:25:47;;;;;;;;;18.67;18.67;;;;;0.71;89.52;101147.25;6184484;23;8809;-79
2022/01/09 06:28:43;;;;;;;;;19.67;19.00;;;;;0.63;90.16;101147.69;6183705;23;8833;-79
2022/01/09 06:31:39;;;;;;;;;20.00;20.00;;;;;0.77;89.80;101140.78;6184198;23;8786;-77
2022/01/09 06:34:34;;;;;;;;;16.67;16.67;;;;;0.71;89.78;101147.25;6164589;23;8810;-80
2022/01/09 06:37:30;;;;;;;;;19.33;19.33;;;;;0.81;90.00;101148.16;6184225;23;9480;-79
2022/01/09 06:39:58;;;;;;;;;17.00;14.00;;;;;0.85;89.39;101147.69;6167923;23;9625;-79
2022/01/09 06:42:26;;;;;;;;;21.33;21.33;;;;;0.83;89.38;101145.19;6168256;23;8777;-79
2022/01/09 06:44:54;;;;;;;;;26.33;26.33;;;;;1.03;88.69;101136.44;6192618;23;11487;-80
2022/01/09 06:47:22;;;;;;;;;19.33;19.33;;;;;0.90;88.91;101129.47;6194143;23;8793;-80
2022/01/09 06:50:18;;;;;;;;;30.67;27.67;;;;;0.85;88.91;101126.72;6184212;23;8824;-79
2022/01/09 06:52:46;;;;;;;;;5.00;5.00;;;;;0.98;89.27;101126.28;6168501;23;8801;-79
2022/01/09 06:55:13;;;;;;;;;18.33;18.33;;;;;1.08;88.62;101131.03;6194211;23;11436;-80
2022/01/09 06:57:40;;;;;;;;;20.00;20.00;;;;;1.05;88.80;101132.38;6168239;23;11602;-79
2022/01/09 07:00:22;;;;;;;;;18.67;18.00;;;;;0.99;89.01;101124.38;6185153;23;11512;-79
2022/01/09 07:03:17;;;;;;;;;20.00;20.00;;;;;1.07;88.61;101121.19;6183183;23;12308;-79
2022/01/09 07:06:05;;;;;;;;;16.67;16.67;;;;;0.99;89.90;101127.13;6183182;23;11498;-80
2022/01/09 07:08:34;;;;;;;;;18.33;18.33;;;;;1.02;89.64;101124.72;6194566;23;11500;-77
2022/01/09 07:11:04;;;;;;;;;20.00;18.00;;;;;0.94;90.01;101122.44;6196319;23;11491;-78
2022/01/09 07:13:32;;;;;;;;;17.33;17.33;;;;;1.02;89.87;101104.81;6194365;23;11545;-79
2022/01/09 07:16:00;;;;;;;;;23.33;23.33;;;;;0.92;89.91;101100.09;6193897;23;11494;-81
2022/01/09 07:18:44;;;;;;;;;23.75;21.25;;;;;1.06;89.82;101114.94;6195113;23;11598;-80
2022/01/09 07:21:12;;;;;;;;;27.00;25.33;;;;;1.18;90.08;101097.63;6195957;23;11506;-79
2022/01/09 07:24:07;;;;;;;;;21.33;20.00;;;;;1.07;89.61;101096.69;6153472;23;11608;-79
2022/01/09 07:26:35;;;;;;;;;26.00;24.33;;;;;1.18;89.46;101094.91;6163846;23;11566;-80
2022/01/09 07:29:17;;;;;;;;;21.33;20.67;;;;;1.18;89.54;101098.44;6157241;23;11574;-80
2022/01/09 07:32:12;;;;;;;;;23.67;22.33;;;;;1.30;89.76;101101.84;6153353;23;11593;-80
2022/01/09 07:35:08;;;;;;;;;23.33;21.00;;;;;1.33;88.79;101105.94;6154028;23;11575;-79
2022/01/09 07:38:04;;;;;;;;;30.00;23.67;;;;;1.33;89.45;101095.03;6154596;23;8801;-79
2022/01/09 07:40:32;;;;;;;;;23.33;23.33;;;;;1.20;89.63;101104.44;6138027;23;11697;-79
2022/01/09 07:43:00;;;;;;;;;22.00;21.33;;;;;1.24;89.99;101105.59;6137868;23;11632;-80
2022/01/09 07:45:29;;;;;;;;;20.33;20.33;;;;;1.29;89.71;101105.63;6164316;23;8794;-81
2022/01/09 07:47:58;;;;;;;;;26.67;23.33;;;;;1.36;89.54;101098.06;6164255;23;11586;-79
2022/01/09 07:50:27;;;;;;;;;20.00;20.00;;;;;1.35;89.94;101112.75;6159527;23;11610;-79
2022/01/09 07:52:56;;;;;;;;;26.33;26.33;;;;;1.47;90.30;101100.88;6154758;23;11602;-78
2022/01/09 07:55:52;;;;;;;;;21.00;21.00;;;;;1.42;89.92;101089.94;6134691;23;11683;-79
2022/01/09 07:58:48;;;;;;;;;19.33;19.33;;;;;1.53;89.45;101078.81;6134608;23;11581;-80
2022/01/09 08:01:43;;;;;;;;;23.67;23.67;;;;;1.56;89.26;101083.78;6154223;23;11594;-82
2022/01/09 08:04:25;;;;;;;;;20.33;20.33;;;;;1.57;89.02;101077.25;6155486;23;11648;-80
2022/01/09 08:07:21;;;;;;;;;22.75;22.75;;;;;1.51;89.80;101080.19;6153995;23;12320;-79
2022/01/09 08:10:16;;;;;;;;;20.00;18.50;;;;;1.67;89.42;101080.03;6155827;23;11624;-80
2022/01/09 08:13:12;;;;;;;;;23.50;22.75;;;;;1.57;89.26;101066.34;6152541;23;11616;-80
2022/01/09 08:16:07;;;;;;;;;37.00;31.33;;;;;1.51;90.24;101075.53;6154725;23;11593;-80
2022/01/09 08:19:03;;;;;;;;;43.67;40.33;;;;;1.55;90.27;101063.06;6156097;23;11598;-79
2022/01/09 08:21:59;;;;;;;;;53.33;46.33;;;;;1.68;90.11;101069.94;6161157;23;8887;-79
2022/01/09 08:24:55;;;;;;;;;28.33;27.33;;;;;1.70;89.78;101059.63;6185030;23;8892;-79
2022/01/09 08:27:50;;;;;;;;;45.00;44.00;;;;;1.80;89.92;101056.13;6185012;23;11555;-80
2022/01/09 08:30:46;;;;;;;;;22.75;21.25;;;;;1.92;89.34;101057.56;6164765;23;9503;-79
2022/01/09 08:33:42;;;;;;;;;43.00;41.00;;;;;1.98;89.32;101046.66;6184756;23;11511;-79
2022/01/09 08:36:38;;;;;;;;;18.00;18.00;;;;;2.02;89.08;101045.88;6185216;23;9484;-80
2022/01/09 08:39:34;;;;;;;;;30.00;25.25;;;;;2.07;89.01;101035.00;6184739;23;11603;-80
2022/01/09 08:42:29;;;;;;;;;20.00;17.25;;;;;2.09;88.71;101032.81;6165295;23;11572;-80
2022/01/09 08:45:25;;;;;;;;;27.75;26.75;;;;;2.22;88.59;101026.88;6165069;23;11529;-80
2022/01/09 08:48:20;;;;;;;;;38.67;38.67;;;;;2.18;89.23;101025.75;6184837;23;11597;-80
2022/01/09 08:51:16;;;;;;;;;30.00;29.75;;;;;2.29;88.28;101028.53;6184989;23;11520;-81
2022/01/09 08:54:12;;;;;;;;;30.75;30.75;;;;;2.36;88.43;101021.72;6184075;23;11527;-79
2022/01/09 08:57:07;;;;;;;;;57.33;49.33;;;;;2.33;87.98;101013.25;6185029;23;11590;-80
2022/01/09 09:00:05;;;;;;;;;20.25;20.25;;;;;2.37;88.39;101009.72;6184449;23;8786;-81
2022/01/09 09:03:00;;;;;;;;;23.50;21.00;;;;;2.24;88.21;101002.06;6183722;23;11593;-78
2022/01/09 09:05:56;;;;;;;;;21.75;20.50;;;;;2.32;88.17;100995.25;6184829;23;11581;-77
2022/01/09 09:08:52;;;;;;;;;15.75;15.75;;;;;2.45;87.57;101002.91;6184484;23;11493;-81
2022/01/09 09:11:48;;;;;;;;;20.50;20.50;;;;;2.39;87.23;100996.63;6184267;23;11491;-80
2022/01/09 09:14:44;;;;;;;;;26.00;25.25;;;;;2.35;88.16;100989.25;6165151;23;12211;-79
2022/01/09 09:17:39;;;;;;;;;21.00;21.00;;;;;2.43;87.94;100980.53;6184333;23;12231;-79
2022/01/09 09:20:36;;;;;;;;;40.25;26.75;;;;;2.38;88.31;100972.34;6164918;23;11516;-78
2022/01/09 09:23:31;;;;;;;;;24.75;24.50;;;;;2.44;87.73;100958.41;6177602;23;11700;-80
2022/01/09 09:26:27;;;;;;;;;32.25;30.75;;;;;2.47;87.80;100952.44;6185410;23;12317;-78
2022/01/09 09:29:23;;;;;;;;;28.25;27.50;;;;;2.62;87.25;100948.91;6186592;23;11555;-79
2022/01/09 09:32:18;;;;;;;;;28.25;28.25;;;;;2.61;87.92;100936.34;6186914;23;11555;-77
2022/01/09 09:35:14;;;;;;;;;21.75;21.75;;;;;2.61;87.68;100932.78;6185357;23;11627;-79
2022/01/09 09:38:10;;;;;;;;;29.00;29.00;;;;;2.56;87.97;100921.84;6183473;23;11658;-77
2022/01/09 09:40:46;;;;;;;;;14.75;14.75;;;;;2.45;88.04;100927.31;6207770;23;11532;-78
2022/01/09 09:43:29;;;;;;;;;22.75;22.75;;;;;2.58;87.74;100925.94;6191973;23;11556;-77
2022/01/09 09:46:25;;;;;;;;;25.00;25.00;;;;;2.66;87.78;100936.31;6186379;23;11572;-77
2022/01/09 09:48:55;;;;;;;;;27.50;27.00;;;;;2.78;87.47;100941.53;6194356;23;11561;-79
2022/01/09 09:51:36;;;;;;;;;34.75;34.75;;;;;2.94;86.99;100943.16;6184887;23;11580;-77
2022/01/09 09:54:04;;;;;;;;;38.75;38.50;;;;;3.03;86.67;100943.44;6185294;23;12304;-78
2022/01/09 09:56:32;;;;;;;;;42.00;40.50;;;;;3.05;86.78;100936.59;6194253;23;12358;-79
2022/01/09 09:59:35;;;;;;;;;41.75;38.75;;;;;3.17;86.81;100935.50;6184915;23;11679;-78
2022/01/09 10:02:47;;;;;;;;;19.00;19.00;;;;;3.28;86.52;100928.91;6184868;23;11557;-78
2022/01/09 10:05:43;;;;;;;;;21.75;21.50;;;;;3.42;85.47;100929.16;6185187;23;11570;-79
2022/01/09 10:08:39;;;;;;;;;19.00;17.75;;;;;3.40;85.14;100918.50;6185273;23;11644;-79
2022/01/09 10:11:49;;;;;;;;;26.00;23.75;;;;;3.53;84.95;100909.72;6184002;23;12347;-80
2022/01/09 10:14:53;;;;;;;;;19.00;19.00;;;;;3.60;84.69;100903.94;6185174;23;11670;-82
2022/01/09 10:17:50;;;;;;;;;26.50;26.50;;;;;3.69;84.98;100904.19;6184227;23;11574;-80
2022/01/09 10:20:45;;;;;;;;;24.75;24.50;;;;;3.70;84.53;100908.56;6182777;23;11626;-81
2022/01/09 10:24:02;;;;;;;;;23.00;23.00;;;;;3.66;83.87;100902.81;6185121;23;11580;-79
2022/01/09 10:26:57;;;;;;;;;19.75;19.75;;;;;3.68;84.19;100903.38;6164096;23;12299;-78
2022/01/09 10:29:54;;;;;;;;;28.50;27.50;;;;;3.78;84.43;100895.13;6183692;23;11532;-78
2022/01/09 10:32:55;;;;;;;;;26.75;25.75;;;;;3.80;83.84;100890.19;6182665;23;11502;-77
2022/01/09 10:35:52;;;;;;;;;19.50;19.50;;;;;3.81;84.18;100877.31;6165296;23;11538;-79
2022/01/09 10:38:49;;;;;;;;;18.75;18.25;;;;;3.89;83.24;100882.22;6163862;23;11523;-80
2022/01/09 10:41:45;;;;;;;;;25.25;24.50;;;;;3.81;83.77;100877.31;6183969;23;11581;-78
2022/01/09 10:44:43;;;;;;;;;15.25;15.25;;;;;3.75;84.57;100865.56;6183229;23;11519;-80
2022/01/09 10:47:38;;;;;;;;;21.00;20.50;;;;;3.85;83.77;100859.25;6163836;23;11522;-80
2022/01/09 10:50:37;;;;;;;;;18.75;18.75;;;;;3.79;84.52;100857.66;6183597;23;11605;-79
2022/01/09 10:53:37;;;;;;;;;25.00;24.25;;;;;3.88;84.39;100861.41;6183521;23;11476;-79
2022/01/09 10:56:33;;;;;;;;;25.00;24.25;;;;;3.96;83.92;100863.56;6182954;23;11497;-77
2022/01/09 10:59:30;;;;;;;;;27.75;27.50;;;;;4.04;84.10;100860.22;6182995;23;12267;-78
2022/01/09 11:02:00;;;;;;;;;30.75;26.25;;;;;4.13;83.62;100852.22;6167266;23;11491;-79
2022/01/09 11:04:56;;;;;;;;;24.50;22.75;;;;;4.16;83.95;100855.25;6183719;23;12218;-77
2022/01/09 11:07:51;;;;;;;;;23.00;20.50;;;;;4.24;83.83;100861.22;6184579;23;12186;-78
2022/01/09 11:10:47;;;;;;;;;16.75;16.75;;;;;4.28;82.87;100845.84;6183674;23;11519;-77
2022/01/09 11:13:48;;;;;;;;;24.50;22.00;;;;;4.18;83.08;100844.81;6184652;23;12279;-76
2022/01/09 11:16:51;;;;;;;;;22.00;21.00;;;;;4.14;83.33;100845.66;6183633;23;11506;-75
2022/01/09 11:19:49;;;;;;;;;26.75;26.75;;;;;4.25;83.12;100843.69;6183757;23;12210;-78
2022/01/09 11:22:47;;;;;;;;;31.75;31.25;;;;;4.20;83.52;100847.25;6183057;23;12252;-78
2022/01/09 11:25:44;;;;;;;;;27.25;27.25;;;;;4.26;83.91;100845.31;6183121;23;11500;-79
2022/01/09 11:28:43;;;;;;;;;27.00;27.00;;;;;4.29;84.20;100851.03;6182959;23;11540;-79
2022/01/09 11:31:49;;;;;;;;;21.50;21.50;;;;;4.41;83.94;100843.28;6182370;23;11545;-78
2022/01/09 11:35:00;;;;;;;;;32.00;30.00;;;;;4.53;83.49;100837.44;6183508;23;11497;-78
2022/01/09 11:38:07;;;;;;;;;35.00;34.00;;;;;4.60;83.71;100837.94;6182975;23;11523;-78
2022/01/09 11:41:16;;;;;;;;;40.25;39.75;;;;;4.73;83.51;100822.72;6183190;23;11542;-80
2022/01/09 11:44:15;;;;;;;;;31.25;29.50;;;;;4.83;82.82;100821.81;6182561;23;11535;-77
2022/01/09 11:47:11;;;;;;;;;31.00;31.00;;;;;4.77;82.27;100818.31;6183466;23;11512;-78
2022/01/09 11:50:07;;;;;;;;;31.00;28.75;;;;;4.64;83.15;100825.28;6182701;23;11582;-78
2022/01/09 11:53:03;;;;;;;;;25.25;25.25;;;;;4.60;83.14;100826.97;6185657;23;11505;-78
2022/01/09 11:55:37;;;;;;;;;34.50;34.50;;;;;4.66;83.46;100824.97;6195099;23;11595;-78
2022/01/09 11:58:09;;;;;;;;;36.25;33.50;;;;;4.69;83.18;100810.72;6184916;23;11496;-78
2022/01/09 12:01:06;;;;;;;;;28.00;28.00;;;;;4.68;83.62;100822.78;6184540;23;11507;-78
2022/01/09 12:04:02;;;;;;;;;30.25;30.25;;;;;4.82;83.20;100811.94;6184846;23;11534;-79
2022/01/09 12:06:40;;;;;;;;;36.75;36.00;;;;;4.76;83.08;100810.41;6195314;23;11510;-77
2022/01/09 12:09:10;;;;;;;;;30.25;29.25;;;;;4.83;83.08;100806.22;6194251;23;11015;-79
2022/01/09 12:12:11;;;;;;;;;34.50;33.25;;;;;4.77;83.52;100809.28;6185178;23;11510;-76
2022/01/09 12:15:08;;;;;;;;;38.25;38.25;;;;;4.80;83.75;100804.03;6185089;23;11582;-78
2022/01/09 12:18:07;;;;;;;;;44.75;39.00;;;;;4.73;84.02;100804.38;6184873;23;11612;-77
2022/01/09 12:20:43;;;;;;;;;52.50;43.25;;;;;4.71;84.11;100803.03;6194544;23;12285;-78
2022/01/09 12:23:21;;;;;;;;;66.00;55.00;;;;;4.76;84.45;100802.19;6188741;23;11521;-78
2022/01/09 12:26:27;;;;;;;;;54.50;46.75;;;;;4.79;84.98;100804.31;6185132;23;11649;-81
2022/01/09 12:28:55;;;;;;;;;45.25;40.50;;;;;4.97;83.70;100814.53;6160630;23;11522;-78
2022/01/09 12:31:27;;;;;;;;;46.75;43.75;;;;;4.90;83.95;100811.31;6195027;23;11518;-80
2022/01/09 12:33:57;;;;;;;;;37.75;37.75;;;;;5.03;83.55;100805.16;6185948;23;11578;-77
2022/01/09 12:36:30;;;;;;;;;62.50;53.25;;;;;4.90;84.24;100801.16;6186195;23;12323;-79
2022/01/09 12:39:03;;;;;;;;;37.25;37.25;;;;;4.94;84.07;100801.44;6194818;23;12267;-80
2022/01/09 12:41:58;;;;;;;;;36.25;36.25;;;;;5.02;83.81;100798.06;6184532;23;12304;-79
2022/01/09 12:44:54;;;;;;;;;31.00;29.25;;;;;5.02;83.34;100798.06;6184763;23;11525;-78
2022/01/09 12:47:50;;;;;;;;;32.75;27.50;;;;;5.01;83.54;100796.41;6183540;23;11607;-79
2022/01/09 12:50:47;;;;;;;;;25.25;24.50;;;;;4.96;83.40;100796.47;6184705;23;12356;-77
2022/01/09 12:53:48;;;;;;;;;26.00;26.00;;;;;4.82;83.84;100785.38;6185063;23;11525;-78
2022/01/09 12:56:44;;;;;;;;;32.75;26.75;;;;;4.82;83.93;100784.56;6184594;23;11612;-77
2022/01/09 12:59:39;;;;;;;;;22.00;22.00;;;;;4.94;83.32;100788.53;6185322;23;11584;-78
2022/01/09 13:02:37;;;;;;;;;21.25;21.25;;;;;5.01;83.13;100791.75;6165071;23;11684;-80
2022/01/09 13:05:33;;;;;;;;;22.00;22.00;;;;;4.85;83.29;100792.22;6185407;23;11558;-79
2022/01/09 13:08:29;;;;;;;;;24.25;22.50;;;;;4.93;83.28;100799.78;6183835;23;11495;-81
2022/01/09 13:11:26;;;;;;;;;22.50;22.00;;;;;4.86;83.00;100800.13;6184845;23;11522;-78
2022/01/09 13:14:22;;;;;;;;;31.00;31.00;;;;;4.87;83.34;100792.72;6185212;23;11566;-78
2022/01/09 13:17:19;;;;;;;;;43.25;37.50;;;;;4.90;82.97;100794.88;6184690;23;11637;-78
2022/01/09 13:20:19;;;;;;;;;36.00;36.00;;;;;4.79;83.52;100794.19;6165435;23;11622;-78